Denver, Colorado
Traffic Map
Current Weather Conditions
Denver, Colorado
Broken Clouds
Broken Clouds
64°
Feels Like: 64°
Wind Chill: 64° Ceiling: 10000
Heat Index: 64° Visibility: 10mi
Dew Point: 53° Wind: 6mph
Humidity: 65% Direction: 200° (SSW)
Pressure: 30.35in Gusts: 0mph
Raw Report DataKBKF 310358Z 20005KT 10SM SCT060 BKN100 BKN200 18/11 A3035 RMK AO2A LTG DSNT S SLP209 T01800114
Traffic Incident Summary
Active as of:
Severity:
Category:
InformationThere was an issue retrieving the traffic information for this location. Please try a different location or try again shortly.
Advertisements
Track Severe Weather on mobile